Main page
METAR-TAF:

METAR-TAF

Airports :

Istanbul Atatürk, Turkey

Istanbul Atatürk Airport

latitude: 40-58N, longitude: 028-49E, elevation: 48 m

Current weather observation

The report was made 48 minutes ago, at 07:20 UTC
Wind 4 kt from the North/Northwest, varying between North/Northwest and North/Northeast
Temperature 6°C
Humidity 65%
Pressure 1030 hPa
Visibility 10 km or more
no clouds below 1500 m and no cumulonimbus

METAR: LTBA 040720Z 34004KT 330V030 CAVOK 06/M00 Q1030 NOSIG RMK RWY17L 00000KT RWY05 35002KT RWY23 05003KT 020V080

Time: 10:08 (08:08 UTC)

Forecast

The report was made 3 hours and 28 minutes ago, at 04:40 UTC
Forecast valid from 04 at 06 UTC to 05 at 12 UTC
Wind 8 kt from the North
Visibility 10 km or more
no clouds below 1500 m and no cumulonimbus

TAF: LTBA 040440Z 0406/0512 35008KT CAVOK

Weather observations and forecasts of more than 4000 airports (METAR and TAF reports).

The available stations are represented by yellow and red dots on the map.

Hover mouse over dot to see the name of the station.

Then click to see weather observations and forecasts.

To change the map : click on the green buttons with a black cross to zoom in, on the green button with a dash to zoom out, or on the green arrows for adjacent maps.


METAR-TAF: